Time;durP1;ratioP1;P1;durP2;ratioP2;P2;SDS_P1;SDS_P2;PMS_P1;PMS_P2;Temp;Humidity;BMP_temperature;BMP_pressure;BME280_temperature;BME280_humidity;BME280_pressure;Samples;Min_cycle;Max_cycle;Signal;HPM_P1;HPM_P2
2023/08/10 00:00:53;;;;;;;10.10;1.42;;;14.70;99.90;;;;;;4230998;28;20044;-80
2023/08/10 00:02:55;;;;;;;7.35;1.10;;;14.70;99.90;;;;;;4230804;28;20044;-80
2023/08/10 00:04:56;;;;;;;8.20;2.55;;;14.70;99.90;;;;;;4230635;28;20147;-80
2023/08/10 00:06:57;;;;;;;2.85;1.73;;;14.60;99.90;;;;;;4234400;28;20380;-80
2023/08/10 00:08:58;;;;;;;7.95;1.38;;;14.60;99.90;;;;;;4230968;28;20085;-80
2023/08/10 00:10:58;;;;;;;7.00;1.63;;;14.60;99.90;;;;;;4231417;28;20399;-80
2023/08/10 00:12:59;;;;;;;4.72;1.40;;;14.60;99.90;;;;;;4230044;28;20639;-80
2023/08/10 00:15:00;;;;;;;4.50;1.40;;;14.60;99.90;;;;;;4230394;28;20048;-80
2023/08/10 00:17:01;;;;;;;8.38;1.60;;;14.70;99.90;;;;;;4230872;28;20059;-80
2023/08/10 00:19:01;;;;;;;9.88;1.23;;;14.50;99.90;;;;;;4230727;28;20078;-80
2023/08/10 00:21:03;;;;;;;2.28;1.27;;;14.40;99.90;;;;;;4230658;28;20114;-80
2023/08/10 00:23:04;;;;;;;4.95;1.25;;;14.40;99.90;;;;;;4231804;28;20548;-80
2023/08/10 00:25:05;;;;;;;10.43;1.73;;;14.60;99.90;;;;;;4230019;28;20039;-80
2023/08/10 00:27:06;;;;;;;5.82;1.40;;;14.40;99.90;;;;;;4230695;28;20553;-80
2023/08/10 00:29:07;;;;;;;4.97;1.17;;;14.30;99.90;;;;;;4230303;28;20036;-80
2023/08/10 00:31:08;;;;;;;8.73;1.50;;;14.40;99.90;;;;;;4230528;28;20044;-80
2023/08/10 00:33:08;;;;;;;3.30;1.20;;;14.40;99.90;;;;;;4230688;28;20040;-80
2023/08/10 00:35:09;;;;;;;3.90;1.40;;;14.30;99.90;;;;;;4230514;28;20127;-80
2023/08/10 00:37:10;;;;;;;5.60;1.75;;;14.30;99.90;;;;;;4230722;28;20131;-80
2023/08/10 00:39:10;;;;;;;3.03;1.08;;;14.20;99.90;;;;;;4229844;28;20150;-80
2023/08/10 00:41:11;;;;;;;8.73;1.30;;;14.40;99.90;;;;;;4229235;28;20044;-80
2023/08/10 00:43:12;;;;;;;7.15;2.03;;;14.30;99.90;;;;;;4229502;28;20055;-80
2023/08/10 00:45:13;;;;;;;5.07;1.65;;;14.30;99.90;;;;;;4228784;28;20074;-80
2023/08/10 00:47:14;;;;;;;7.75;2.28;;;14.30;99.90;;;;;;4230357;28;20036;-80
2023/08/10 00:49:15;;;;;;;1.67;1.15;;;14.30;99.90;;;;;;4230433;28;20394;-80
2023/08/10 00:51:16;;;;;;;7.45;1.45;;;14.30;99.90;;;;;;4230286;28;20121;-80
2023/08/10 00:53:18;;;;;;;9.10;1.33;;;14.30;99.90;;;;;;4230563;28;20520;-80
2023/08/10 00:55:19;;;;;;;5.88;1.50;;;14.30;99.90;;;;;;4229796;28;20047;-80
2023/08/10 00:57:20;;;;;;;2.58;1.10;;;14.40;99.90;;;;;;4230430;28;20403;-80
2023/08/10 00:59:20;;;;;;;4.57;1.60;;;14.40;99.90;;;;;;4230165;28;20089;-80
2023/08/10 01:01:21;;;;;;;4.15;1.60;;;14.40;99.90;;;;;;4230137;28;20487;-80
2023/08/10 01:03:22;;;;;;;12.02;2.45;;;14.40;99.90;;;;;;4230365;28;20430;-80
2023/08/10 01:05:24;;;;;;;2.67;1.40;;;14.40;99.90;;;;;;4229701;28;20047;-80
2023/08/10 01:07:42;;;;;;;3.08;1.15;;;14.40;99.90;;;;;;4230301;28;20043;-80
2023/08/10 01:09:51;;;;;;;8.38;1.30;;;14.40;99.90;;;;;;4230197;28;20083;-80
2023/08/10 01:12:17;;;;;;;18.10;2.10;;;14.50;99.90;;;;;;4230029;28;20097;-80
2023/08/10 01:14:49;;;;;;;6.00;2.03;;;14.40;99.90;;;;;;4229899;28;20463;-80
2023/08/10 01:16:51;;;;;;;3.67;1.20;;;14.40;99.90;;;;;;4229903;28;20430;-80
2023/08/10 01:18:53;;;;;;;5.72;2.42;;;14.40;99.90;;;;;;4232320;28;20047;-80
2023/08/10 01:20:56;;;;;;;6.07;1.40;;;14.40;99.90;;;;;;4232403;28;20059;-80
2023/08/10 01:23:23;;;;;;;8.02;1.30;;;14.40;99.90;;;;;;4215387;28;20403;-80
2023/08/10 01:25:25;;;;;;;5.82;1.30;;;14.40;99.90;;;;;;4232830;28;20043;-80
2023/08/10 01:27:31;;;;;;;6.07;1.40;;;14.40;99.90;;;;;;4231724;28;20040;-80
2023/08/10 01:29:31;;;;;;;4.05;1.20;;;14.40;99.90;;;;;;4231708;28;20093;-80
2023/08/10 01:31:32;;;;;;;4.68;1.05;;;14.40;99.90;;;;;;4232926;28;20043;-80
2023/08/10 01:33:33;;;;;;;5.30;1.05;;;14.40;99.90;;;;;;4231825;28;20047;-80
2023/08/10 01:35:39;;;;;;;5.75;1.27;;;14.40;99.90;;;;;;4231362;28;20048;-80
2023/08/10 01:37:40;;;;;;;7.13;1.33;;;14.40;99.90;;;;;;4215095;28;20150;-80
2023/08/10 01:39:40;;;;;;;4.57;1.10;;;14.40;99.90;;;;;;4231583;28;20114;-80
2023/08/10 01:41:41;;;;;;;3.95;1.10;;;14.40;99.90;;;;;;4232017;28;20050;-80
2023/08/10 01:43:42;;;;;;;3.90;1.23;;;14.40;99.90;;;;;;4231827;28;20123;-80
2023/08/10 01:45:48;;;;;;;6.15;1.45;;;14.40;99.90;;;;;;4232953;28;20052;-80
2023/08/10 01:48:03;;;;;;;7.05;1.30;;;14.40;99.90;;;;;;4231162;28;20442;-80
2023/08/10 01:50:06;;;;;;;4.43;1.63;;;14.50;99.90;;;;;;4231396;28;20392;-80
2023/08/10 01:52:09;;;;;;;7.15;1.83;;;14.40;99.90;;;;;;4232972;28;20040;-81
2023/08/10 01:54:11;;;;;;;5.68;1.65;;;14.40;99.90;;;;;;4231232;28;20151;-79
2023/08/10 01:56:12;;;;;;;5.50;1.70;;;14.40;99.90;;;;;;4231450;28;20422;-80
2023/08/10 01:58:13;;;;;;;3.88;1.17;;;14.40;99.90;;;;;;4231527;28;20131;-80
2023/08/10 02:00:14;;;;;;;4.50;1.63;;;14.50;99.90;;;;;;4232599;28;20043;-80
2023/08/10 02:02:15;;;;;;;4.13;1.10;;;14.50;99.90;;;;;;4231304;28;20104;-80
2023/08/10 02:04:15;;;;;;;5.15;1.60;;;14.40;99.90;;;;;;4231334;28;20086;-80
2023/08/10 02:06:16;;;;;;;3.83;1.33;;;14.40;99.90;;;;;;4231191;28;20047;-80
2023/08/10 02:08:18;;;;;;;7.20;1.40;;;14.50;99.90;;;;;;4231291;28;20059;-80
2023/08/10 02:10:19;;;;;;;3.88;1.50;;;14.50;99.90;;;;;;4230411;28;20211;-80
2023/08/10 02:12:19;;;;;;;5.57;2.22;;;14.50;99.90;;;;;;4231370;28;20054;-80
2023/08/10 02:14:20;;;;;;;7.80;1.60;;;14.40;99.90;;;;;;4230823;28;20051;-80
2023/08/10 02:16:21;;;;;;;2.65;1.05;;;14.40;99.90;;;;;;4230810;28;20063;-80
2023/08/10 02:18:21;;;;;;;4.80;1.65;;;14.40;99.90;;;;;;4232001;28;20047;-80
2023/08/10 02:20:22;;;;;;;5.30;1.30;;;14.30;99.90;;;;;;4230836;28;20113;-80
2023/08/10 02:22:23;;;;;;;6.57;1.52;;;14.30;99.90;;;;;;4214320;28;20401;-82
2023/08/10 02:24:24;;;;;;;2.10;1.60;;;14.30;99.90;;;;;;4232334;28;20524;-80
2023/08/10 02:26:24;;;;;;;4.07;1.55;;;14.30;99.90;;;;;;4231117;28;20079;-80
2023/08/10 02:28:25;;;;;;;4.30;1.33;;;14.40;99.90;;;;;;4230921;28;20131;-80
2023/08/10 02:30:26;;;;;;;7.40;1.80;;;14.30;99.90;;;;;;4229903;28;20036;-80
2023/08/10 02:32:26;;;;;;;8.30;1.67;;;14.40;99.90;;;;;;4213476;28;20103;-80
2023/08/10 02:34:27;;;;;;;3.15;1.17;;;14.40;99.90;;;;;;4230694;28;20048;-80
2023/08/10 02:36:28;;;;;;;4.28;1.83;;;14.40;99.90;;;;;;4213890;28;20075;-80
2023/08/10 02:38:29;;;;;;;4.40;1.92;;;14.40;99.90;;;;;;4230686;28;20123;-80
2023/08/10 02:40:29;;;;;;;4.07;1.40;;;14.40;99.90;;;;;;4230603;28;20573;-80
2023/08/10 02:42:30;;;;;;;5.15;1.38;;;14.40;99.90;;;;;;4231995;28;20479;-80
2023/08/10 02:44:31;;;;;;;3.03;1.13;;;14.40;99.90;;;;;;4231368;28;20096;-80
2023/08/10 02:46:32;;;;;;;6.68;1.27;;;14.40;99.90;;;;;;4230651;28;20055;-80
2023/08/10 02:48:32;;;;;;;7.00;2.10;;;14.40;99.90;;;;;;4213550;28;20044;-80
2023/08/10 02:50:33;;;;;;;4.15;1.20;;;14.50;99.90;;;;;;4213918;28;20040;-80
2023/08/10 02:52:34;;;;;;;3.92;1.30;;;14.40;99.90;;;;;;4230422;28;20051;-80
2023/08/10 02:54:35;;;;;;;4.07;1.55;;;14.40;99.90;;;;;;4230475;28;20039;-80
2023/08/10 02:56:36;;;;;;;3.80;1.35;;;14.50;99.90;;;;;;4230338;28;20166;-80
2023/08/10 02:58:37;;;;;;;7.07;1.67;;;14.40;99.90;;;;;;4230353;28;20523;-80
2023/08/10 03:00:38;;;;;;;3.97;1.38;;;14.40;99.90;;;;;;4230096;28;20388;-80
2023/08/10 03:02:39;;;;;;;2.45;1.08;;;14.40;99.90;;;;;;4231453;28;20475;-80
2023/08/10 03:04:40;;;;;;;3.40;1.30;;;14.40;99.90;;;;;;4230887;28;20052;-80
2023/08/10 03:06:41;;;;;;;3.25;1.33;;;14.40;99.90;;;;;;4231672;28;20047;-80
2023/08/10 03:08:42;;;;;;;2.85;1.20;;;14.40;99.90;;;;;;4230392;28;20496;-80
2023/08/10 03:10:42;;;;;;;3.85;1.23;;;14.30;99.90;;;;;;4230355;28;20531;-80
2023/08/10 03:12:43;;;;;;;5.70;1.55;;;14.40;99.90;;;;;;4231451;28;20048;-80
2023/08/10 03:14:45;;;;;;;5.63;1.30;;;14.40;99.90;;;;;;4229411;28;20079;-80
2023/08/10 03:16:45;;;;;;;5.50;1.52;;;14.30;99.90;;;;;;4231420;28;20083;-80
2023/08/10 03:18:46;;;;;;;2.28;1.30;;;14.30;99.90;;;;;;4231405;28;20059;-80
2023/08/10 03:20:47;;;;;;;6.65;1.60;;;14.30;99.90;;;;;;4230207;28;20124;-80
2023/08/10 03:22:47;;;;;;;5.57;1.95;;;14.30;99.90;;;;;;4230090;28;20079;-80
2023/08/10 03:24:48;;;;;;;2.78;1.30;;;14.30;99.90;;;;;;4229524;28;20054;-80
2023/08/10 03:26:49;;;;;;;5.60;1.15;;;14.30;99.90;;;;;;4230032;28;20051;-80
2023/08/10 03:28:50;;;;;;;3.97;1.30;;;14.30;99.90;;;;;;4231243;28;20031;-80
2023/08/10 03:30:51;;;;;;;3.90;1.00;;;14.20;99.90;;;;;;4231070;28;20055;-80
2023/08/10 03:32:51;;;;;;;8.90;2.35;;;14.20;99.90;;;;;;4231326;28;20051;-80
2023/08/10 03:34:52;;;;;;;6.95;1.50;;;14.20;99.90;;;;;;4230959;28;20105;-81
2023/08/10 03:36:54;;;;;;;9.43;2.40;;;14.20;99.90;;;;;;4231036;28;20079;-80
2023/08/10 03:38:55;;;;;;;6.03;1.40;;;14.30;99.90;;;;;;4229078;28;20051;-80
2023/08/10 03:40:56;;;;;;;12.75;2.45;;;14.30;99.90;;;;;;4229679;28;20050;-80
2023/08/10 03:42:56;;;;;;;6.85;1.40;;;14.20;99.90;;;;;;4212688;28;20516;-80
2023/08/10 03:44:58;;;;;;;6.00;1.27;;;14.20;99.90;;;;;;4230824;28;20044;-80
2023/08/10 03:46:58;;;;;;;4.90;1.35;;;14.20;99.90;;;;;;4230900;28;20039;-81
2023/08/10 03:48:59;;;;;;;6.80;1.23;;;14.20;99.90;;;;;;4230552;28;20047;-81
2023/08/10 03:51:01;;;;;;;4.22;1.27;;;14.20;99.90;;;;;;4229603;28;20048;-80
2023/08/10 03:53:02;;;;;;;10.13;2.63;;;14.30;99.90;;;;;;4231514;28;20539;-81
2023/08/10 03:55:03;;;;;;;7.45;1.33;;;14.20;99.90;;;;;;4229839;28;20055;-81
2023/08/10 03:57:04;;;;;;;5.13;1.30;;;14.20;99.90;;;;;;4231041;28;20510;-81
2023/08/10 03:59:05;;;;;;;4.97;1.33;;;14.20;99.90;;;;;;4230526;28;20039;-81
2023/08/10 04:01:06;;;;;;;5.30;1.30;;;14.20;99.90;;;;;;4229355;28;20074;-81
2023/08/10 04:03:07;;;;;;;8.38;2.75;;;14.30;99.90;;;;;;4229497;28;20048;-81
2023/08/10 04:05:10;;;;;;;5.70;1.30;;;14.20;99.90;;;;;;4230610;28;20044;-81
2023/08/10 04:07:12;;;;;;;7.53;1.10;;;14.30;99.90;;;;;;4229184;28;20132;-80
2023/08/10 04:09:12;;;;;;;5.03;1.30;;;14.20;99.90;;;;;;4229795;28;20403;-80
2023/08/10 04:11:13;;;;;;;5.90;1.20;;;14.20;99.90;;;;;;4229422;28;20055;-80
2023/08/10 04:13:14;;;;;;;3.53;1.35;;;14.30;99.90;;;;;;4229646;28;20138;-80
2023/08/10 04:15:15;;;;;;;3.15;1.50;;;14.20;99.90;;;;;;4230554;28;20047;-81
2023/08/10 04:17:18;;;;;;;2.30;1.40;;;14.20;99.90;;;;;;4230632;28;20051;-80
2023/08/10 04:19:18;;;;;;;3.97;1.40;;;14.30;99.90;;;;;;4230270;28;20059;-80
2023/08/10 04:21:19;;;;;;;4.65;1.50;;;14.20;99.90;;;;;;4212717;28;20130;-80
2023/08/10 04:23:20;;;;;;;8.55;1.73;;;14.20;99.90;;;;;;4229270;28;20051;-81
2023/08/10 04:25:22;;;;;;;5.05;1.08;;;14.30;99.90;;;;;;4229035;28;20047;-81
2023/08/10 04:27:23;;;;;;;7.05;1.40;;;14.20;99.90;;;;;;4229437;28;20577;-81
2023/08/10 04:29:26;;;;;;;7.95;1.58;;;14.30;99.90;;;;;;4229008;28;20055;-81
2023/08/10 04:31:27;;;;;;;3.60;1.60;;;14.30;99.90;;;;;;4229118;28;20054;-80
2023/08/10 04:33:28;;;;;;;7.70;1.40;;;14.30;99.90;;;;;;4229352;28;20048;-81
2023/08/10 04:35:28;;;;;;;8.73;1.60;;;14.30;99.90;;;;;;4230146;28;20512;-81
2023/08/10 04:37:29;;;;;;;4.78;1.45;;;14.30;99.90;;;;;;4229594;28;20116;-81
2023/08/10 04:39:30;;;;;;;2.85;1.45;;;14.30;99.90;;;;;;4229192;28;20075;-81
2023/08/10 04:41:31;;;;;;;4.38;1.30;;;14.30;99.90;;;;;;4228450;28;20055;-81
2023/08/10 04:43:31;;;;;;;3.38;1.50;;;14.30;99.90;;;;;;4229138;28;20096;-81
2023/08/10 04:45:32;;;;;;;3.40;1.23;;;14.30;99.90;;;;;;4229074;28;20048;-81
2023/08/10 04:47:33;;;;;;;4.50;1.60;;;14.50;99.90;;;;;;4230438;28;20066;-81
2023/08/10 04:49:33;;;;;;;5.93;1.50;;;14.40;99.90;;;;;;4229105;28;20035;-81
2023/08/10 04:51:34;;;;;;;9.93;1.70;;;14.40;99.90;;;;;;4230264;28;20047;-81
2023/08/10 04:53:34;;;;;;;10.30;2.10;;;14.50;99.90;;;;;;4232244;28;20047;-81
2023/08/10 04:55:35;;;;;;;7.97;1.95;;;14.40;99.90;;;;;;4214864;28;20120;-81
2023/08/10 04:57:36;;;;;;;3.38;1.35;;;14.40;99.90;;;;;;4232558;28;20256;-81
2023/08/10 04:59:37;;;;;;;8.73;1.80;;;14.40;99.90;;;;;;4233701;27;20159;-81
2023/08/10 05:01:38;;;;;;;12.55;2.72;;;14.40;99.90;;;;;;4233733;28;20032;-81
2023/08/10 05:03:39;;;;;;;6.57;1.80;;;14.40;99.90;;;;;;4233605;28;20075;-81
2023/08/10 05:05:40;;;;;;;5.38;1.40;;;14.50;99.90;;;;;;4233131;28;20051;-80
2023/08/10 05:07:41;;;;;;;6.80;1.60;;;14.50;99.90;;;;;;4233459;28;20415;-81
2023/08/10 05:09:42;;;;;;;3.75;1.55;;;14.50;99.90;;;;;;4234290;28;20526;-81
2023/08/10 05:11:43;;;;;;;3.53;1.60;;;14.50;99.90;;;;;;4236473;28;20491;-80
2023/08/10 05:13:43;;;;;;;4.60;1.88;;;14.50;99.90;;;;;;4239202;28;20048;-80
2023/08/10 05:15:44;;;;;;;10.20;2.00;;;14.50;99.90;;;;;;4237673;28;20042;-81
2023/08/10 05:17:45;;;;;;;4.97;1.50;;;14.60;99.90;;;;;;4239149;28;20100;-80
2023/08/10 05:19:45;;;;;;;9.88;1.80;;;14.60;99.90;;;;;;4238130;28;20122;-79
2023/08/10 05:21:46;;;;;;;3.42;1.63;;;14.60;99.90;;;;;;4238664;28;20036;-79
2023/08/10 05:23:47;;;;;;;10.95;1.77;;;14.60;99.90;;;;;;4237922;28;20032;-79
2023/08/10 05:25:47;;;;;;;3.42;1.25;;;14.60;99.90;;;;;;4234354;28;20059;-80
2023/08/10 05:27:48;;;;;;;2.55;1.17;;;14.70;99.90;;;;;;4214868;28;20498;-80
2023/08/10 05:29:49;;;;;;;6.97;1.67;;;14.70;99.90;;;;;;4233029;28;20093;-80
2023/08/10 05:31:50;;;;;;;8.82;2.28;;;14.80;99.90;;;;;;4232910;28;20047;-80
2023/08/10 05:33:50;;;;;;;6.35;1.60;;;14.70;99.90;;;;;;4214296;28;20103;-80
2023/08/10 05:35:51;;;;;;;3.42;1.48;;;14.80;99.90;;;;;;4214595;28;20135;-80
2023/08/10 05:37:52;;;;;;;3.67;1.48;;;14.80;99.90;;;;;;4231587;28;20479;-80
2023/08/10 05:39:53;;;;;;;7.32;1.50;;;14.80;99.90;;;;;;4232881;28;20064;-80
2023/08/10 05:41:54;;;;;;;7.80;1.63;;;14.80;99.90;;;;;;4231451;28;20048;-80
2023/08/10 05:43:54;;;;;;;6.50;1.25;;;14.90;99.90;;;;;;4233069;28;20549;-80
2023/08/10 05:45:55;;;;;;;5.10;1.85;;;14.90;99.90;;;;;;4232685;28;20380;-80
2023/08/10 05:47:56;;;;;;;7.40;1.70;;;14.90;99.90;;;;;;4214754;28;20398;-80
2023/08/10 05:49:57;;;;;;;3.60;1.58;;;15.00;99.90;;;;;;4231392;28;20048;-80
2023/08/10 05:51:57;;;;;;;4.35;1.85;;;15.00;99.90;;;;;;4231686;28;20043;-80
2023/08/10 05:53:58;;;;;;;10.43;2.03;;;15.00;99.90;;;;;;4230988;28;20062;-80
2023/08/10 05:55:59;;;;;;;8.05;1.95;;;15.00;99.90;;;;;;4214749;28;20121;-80
2023/08/10 05:58:00;;;;;;;3.28;1.70;;;15.10;99.90;;;;;;4214688;28;20527;-80
2023/08/10 06:00:00;;;;;;;4.80;1.60;;;15.10;99.90;;;;;;4232483;28;20051;-80
2023/08/10 06:02:01;;;;;;;10.65;2.20;;;15.10;99.90;;;;;;4231506;28;20043;-80
2023/08/10 06:04:04;;;;;;;7.22;1.58;;;15.00;99.90;;;;;;4231521;28;20043;-80
2023/08/10 06:06:06;;;;;;;4.68;1.50;;;15.10;99.90;;;;;;4232409;28;20043;-80
2023/08/10 06:08:07;;;;;;;5.65;2.05;;;15.10;99.90;;;;;;4230546;28;20169;-80
2023/08/10 06:10:09;;;;;;;6.30;1.52;;;15.00;99.90;;;;;;4230929;28;20056;-80
2023/08/10 06:12:10;;;;;;;7.40;1.40;;;15.00;99.90;;;;;;4231314;28;20061;-80
2023/08/10 06:14:11;;;;;;;5.10;2.10;;;15.00;99.90;;;;;;4230985;28;20082;-80
2023/08/10 06:16:11;;;;;;;6.20;1.40;;;15.00;99.90;;;;;;4232203;28;20510;-80
2023/08/10 06:18:13;;;;;;;7.55;1.90;;;15.00;99.90;;;;;;4232510;28;20403;-80
2023/08/10 06:20:17;;;;;;;7.90;1.73;;;15.00;99.90;;;;;;4213658;28;20044;-80
2023/08/10 06:22:17;;;;;;;5.00;1.67;;;15.00;99.90;;;;;;4214121;28;20048;-80
2023/08/10 06:24:18;;;;;;;6.15;2.05;;;15.10;99.90;;;;;;4230567;28;20087;-81
2023/08/10 06:26:19;;;;;;;10.02;1.58;;;15.20;99.90;;;;;;4214158;28;20051;-80
2023/08/10 06:28:20;;;;;;;7.53;1.80;;;15.30;99.90;;;;;;4230319;28;20050;-80
2023/08/10 06:30:21;;;;;;;6.82;1.60;;;15.40;99.90;;;;;;4231581;28;20469;-81
2023/08/10 06:32:22;;;;;;;7.97;2.05;;;15.50;99.90;;;;;;4232368;28;20048;-81
2023/08/10 06:34:22;;;;;;;7.85;1.85;;;15.60;99.90;;;;;;4213597;28;20081;-81
2023/08/10 06:36:25;;;;;;;7.35;1.80;;;15.80;99.90;;;;;;4230415;28;20046;-81
2023/08/10 06:38:25;;;;;;;8.90;1.88;;;15.90;99.90;;;;;;4231097;28;20093;-81
2023/08/10 06:40:26;;;;;;;7.80;1.67;;;15.90;99.90;;;;;;4230695;28;20040;-81
2023/08/10 06:42:27;;;;;;;3.58;1.50;;;16.10;99.90;;;;;;4232124;28;20035;-81
2023/08/10 06:44:29;;;;;;;5.78;1.25;;;16.20;99.90;;;;;;4231737;28;20054;-81
2023/08/10 06:46:29;;;;;;;2.10;1.05;;;16.30;99.90;;;;;;4231620;28;20039;-81
2023/08/10 06:48:30;;;;;;;7.78;1.42;;;16.40;99.90;;;;;;4230778;28;20391;-81
2023/08/10 06:50:32;;;;;;;10.00;2.50;;;16.50;99.90;;;;;;4230259;28;20381;-81
2023/08/10 06:52:33;;;;;;;2.63;1.48;;;16.50;99.90;;;;;;4230868;28;20082;-81
2023/08/10 06:54:34;;;;;;;8.90;0.93;;;16.70;99.90;;;;;;4231122;28;20081;-80
2023/08/10 06:56:36;;;;;;;6.50;1.13;;;16.70;99.90;;;;;;4230359;28;20075;-81
2023/08/10 06:58:37;;;;;;;5.32;1.17;;;16.70;99.90;;;;;;4230523;28;20118;-80
2023/08/10 07:00:38;;;;;;;5.28;1.00;;;16.80;99.90;;;;;;4231415;28;20097;-80
2023/08/10 07:02:41;;;;;;;5.28;1.00;;;16.80;99.90;;;;;;4231174;28;20089;-80
2023/08/10 07:04:43;;;;;;;4.32;1.20;;;16.90;99.90;;;;;;4230200;28;20065;-80
2023/08/10 07:06:44;;;;;;;2.65;1.00;;;17.00;99.90;;;;;;4231965;28;20062;-80
2023/08/10 07:08:45;;;;;;;6.03;1.10;;;17.10;99.90;;;;;;4230463;28;20054;-80
2023/08/10 07:10:45;;;;;;;10.20;1.17;;;17.10;99.90;;;;;;4229882;28;20145;-80
2023/08/10 07:12:46;;;;;;;5.38;2.05;;;17.20;99.90;;;;;;4231481;28;20048;-81
2023/08/10 07:14:47;;;;;;;8.93;1.15;;;17.20;99.90;;;;;;4228905;28;20057;-81
2023/08/10 07:16:48;;;;;;;7.90;0.90;;;17.30;99.90;;;;;;4229841;28;20095;-81
2023/08/10 07:18:48;;;;;;;6.80;1.38;;;17.40;99.90;;;;;;4231461;28;20066;-80
2023/08/10 07:20:49;;;;;;;4.72;1.20;;;17.40;99.90;;;;;;4230004;28;20047;-81
2023/08/10 07:22:51;;;;;;;8.07;1.20;;;17.50;99.90;;;;;;4231201;28;20039;-80
2023/08/10 07:24:51;;;;;;;7.85;1.95;;;17.60;99.90;;;;;;4230314;28;20509;-80
2023/08/10 07:26:52;;;;;;;3.40;0.73;;;17.80;99.90;;;;;;4229855;28;20135;-80
2023/08/10 07:28:53;;;;;;;10.00;0.90;;;17.90;99.90;;;;;;4229952;28;20044;-80
2023/08/10 07:30:54;;;;;;;6.95;1.17;;;17.90;99.90;;;;;;4229663;28;20118;-80
2023/08/10 07:32:54;;;;;;;8.40;0.90;;;18.10;99.90;;;;;;4229719;28;20083;-80
2023/08/10 07:34:56;;;;;;;3.47;1.17;;;18.20;99.90;;;;;;4229720;28;20047;-81
2023/08/10 07:36:56;;;;;;;9.30;1.63;;;18.40;99.90;;;;;;4231002;28;20043;-80
2023/08/10 07:38:59;;;;;;;1.73;0.70;;;18.50;99.90;;;;;;4231033;28;20421;-80
2023/08/10 07:41:01;;;;;;;6.28;1.50;;;18.60;99.90;;;;;;4229610;28;20043;-80
2023/08/10 07:43:01;;;;;;;4.88;1.55;;;18.60;99.90;;;;;;4231250;28;20032;-81
2023/08/10 07:45:04;;;;;;;3.05;0.95;;;18.70;99.90;;;;;;4231022;28;20043;-80
2023/08/10 07:47:05;;;;;;;3.55;0.80;;;18.90;99.90;;;;;;4229359;28;20047;-80
2023/08/10 07:49:06;;;;;;;6.30;1.23;;;18.80;99.90;;;;;;4211982;28;20085;-80
2023/08/10 07:51:06;;;;;;;4.30;1.05;;;18.80;99.90;;;;;;4230971;28;20514;-80
2023/08/10 07:53:07;;;;;;;6.93;1.30;;;18.80;99.90;;;;;;4231103;28;20036;-80
2023/08/10 07:55:08;;;;;;;7.70;1.73;;;18.80;99.90;;;;;;4230568;28;20051;-80
2023/08/10 07:57:09;;;;;;;4.95;1.23;;;18.90;99.90;;;;;;4231098;28;20070;-81
2023/08/10 07:59:11;;;;;;;5.68;0.90;;;19.00;99.90;;;;;;4229553;28;20044;-81
2023/08/10 08:01:14;;;;;;;6.97;1.00;;;19.30;99.90;;;;;;4230427;28;20043;-81
2023/08/10 08:03:14;;;;;;;4.10;0.90;;;19.50;99.90;;;;;;4229198;28;20531;-80
2023/08/10 08:05:16;;;;;;;9.38;1.50;;;19.80;99.90;;;;;;4230671;28;20053;-80
2023/08/10 08:07:16;;;;;;;3.70;1.08;;;20.00;99.90;;;;;;4229614;28;20077;-80
2023/08/10 08:09:17;;;;;;;8.85;1.27;;;20.20;99.90;;;;;;4230534;28;20056;-80
2023/08/10 08:11:18;;;;;;;5.15;1.42;;;20.40;99.90;;;;;;4230644;28;20054;-80
2023/08/10 08:13:18;;;;;;;2.20;0.70;;;20.50;99.90;;;;;;4229254;28;20437;-81
2023/08/10 08:15:21;;;;;;;7.57;0.80;;;20.50;99.90;;;;;;4228497;28;20541;-81
2023/08/10 08:17:22;;;;;;;11.30;1.25;;;20.50;99.90;;;;;;4230546;28;20138;-80
2023/08/10 08:19:23;;;;;;;2.45;0.60;;;20.40;99.90;;;;;;4230327;28;20055;-81
2023/08/10 08:21:26;;;;;;;3.08;0.77;;;20.30;99.90;;;;;;4229360;28;20043;-81
2023/08/10 08:23:26;;;;;;;4.95;1.27;;;20.30;99.90;;;;;;4230467;28;20502;-81
2023/08/10 08:25:28;;;;;;;5.63;0.98;;;20.20;99.90;;;;;;4230156;28;20040;-81
2023/08/10 08:27:28;;;;;;;4.30;0.77;;;20.20;99.90;;;;;;4229536;28;20035;-81
2023/08/10 08:29:31;;;;;;;2.13;0.73;;;20.10;99.90;;;;;;4229173;28;20109;-80
2023/08/10 08:31:32;;;;;;;3.63;0.90;;;20.10;99.90;;;;;;4230748;28;20059;-80
2023/08/10 08:33:34;;;;;;;4.90;0.85;;;20.00;99.90;;;;;;4230367;28;20047;-81
2023/08/10 08:35:34;;;;;;;4.57;0.70;;;19.80;99.90;;;;;;4228710;28;20154;-81
2023/08/10 08:37:35;;;;;;;4.05;0.88;;;19.80;99.90;;;;;;4229183;28;20056;-80
2023/08/10 08:39:36;;;;;;;7.95;0.95;;;19.70;99.90;;;;;;4230252;28;20039;-80
2023/08/10 08:41:37;;;;;;;3.50;0.73;;;19.70;99.90;;;;;;4229808;28;20051;-81
2023/08/10 08:43:39;;;;;;;8.32;0.98;;;19.60;99.90;;;;;;4229343;28;20392;-81
2023/08/10 08:45:40;;;;;;;4.30;0.70;;;19.60;99.90;;;;;;4228833;28;20055;-80
2023/08/10 08:47:43;;;;;;;4.88;0.95;;;19.50;99.90;;;;;;4229762;28;20051;-81
2023/08/10 08:49:44;;;;;;;2.53;0.90;;;19.40;99.90;;;;;;4230093;28;20433;-81
2023/08/10 08:51:46;;;;;;;2.45;0.73;;;19.40;99.90;;;;;;4230315;28;20040;-80
2023/08/10 08:53:47;;;;;;;8.00;1.55;;;19.40;99.90;;;;;;4230536;28;20104;-80
2023/08/10 08:55:48;;;;;;;2.33;0.73;;;19.30;99.90;;;;;;4228924;28;20089;-81
2023/08/10 08:57:49;;;;;;;3.78;0.70;;;19.30;99.90;;;;;;4228718;28;20458;-81
2023/08/10 08:59:50;;;;;;;4.18;0.77;;;19.30;99.90;;;;;;4229105;28;20047;-80
2023/08/10 09:01:51;;;;;;;2.78;0.60;;;19.20;99.90;;;;;;4230306;28;20039;-81
2023/08/10 09:03:52;;;;;;;8.23;1.02;;;19.20;99.90;;;;;;4212270;28;20082;-80
2023/08/10 09:05:52;;;;;;;3.78;0.88;;;19.20;99.90;;;;;;4228226;28;20053;-80
2023/08/10 09:07:53;;;;;;;2.50;0.60;;;19.20;99.90;;;;;;4230368;28;20109;-81
2023/08/10 09:09:55;;;;;;;1.75;0.63;;;19.10;99.90;;;;;;4228604;28;20051;-80
2023/08/10 09:11:55;;;;;;;2.42;0.63;;;19.10;99.90;;;;;;4228839;28;20040;-80
2023/08/10 09:14:07;;;;;;;3.00;0.50;;;19.10;99.90;;;;;;4211980;28;20080;-81
2023/08/10 09:16:14;;;;;;;7.97;1.60;;;19.10;99.90;;;;;;4228846;28;20048;-80
2023/08/10 09:18:14;;;;;;;2.88;0.60;;;19.20;99.90;;;;;;4229942;28;20526;-80
2023/08/10 09:20:19;;;;;;;1.73;0.50;;;19.20;99.90;;;;;;4228675;28;20048;-80
2023/08/10 09:22:35;;;;;;;2.97;0.50;;;19.20;99.90;;;;;;4228711;28;20097;-80
2023/08/10 09:24:37;;;;;;;1.77;0.60;;;19.30;99.90;;;;;;4230189;28;20051;-81
2023/08/10 09:26:40;;;;;;;6.85;0.98;;;19.40;99.90;;;;;;4228762;28;20043;-80
2023/08/10 09:28:41;;;;;;;3.28;0.90;;;19.50;99.90;;;;;;4229337;28;20122;-81
2023/08/10 09:30:41;;;;;;;4.13;0.95;;;19.60;99.90;;;;;;4229386;28;20426;-80
2023/08/10 09:32:42;;;;;;;3.28;1.13;;;19.60;99.90;;;;;;4212172;28;20063;-80
2023/08/10 09:34:46;;;;;;;6.35;0.80;;;19.60;99.90;;;;;;4228723;28;20047;-81
2023/08/10 09:36:52;;;;;;;1.60;0.50;;;19.70;99.90;;;;;;4230304;28;20043;-80
2023/08/10 09:38:54;;;;;;;4.80;0.90;;;19.70;99.90;;;;;;4230557;28;20147;-81
2023/08/10 09:41:08;;;;;;;5.88;0.90;;;19.80;99.90;;;;;;4231453;28;20577;-81
2023/08/10 09:43:09;;;;;;;7.38;0.80;;;19.90;99.90;;;;;;4232011;28;20051;-80
2023/08/10 09:45:12;;;;;;;1.90;0.80;;;19.90;99.90;;;;;;4231502;28;20431;-79
2023/08/10 09:47:14;;;;;;;1.48;0.75;;;20.00;99.90;;;;;;4232231;28;20054;-81
2023/08/10 09:49:17;;;;;;;2.13;0.52;;;20.00;99.90;;;;;;4233200;28;20047;-81
2023/08/10 09:51:18;;;;;;;1.25;0.45;;;20.00;99.90;;;;;;4231490;28;20075;-80
2023/08/10 09:53:19;;;;;;;3.85;0.60;;;20.00;99.90;;;;;;4233082;28;20562;-81
2023/08/10 09:55:20;;;;;;;3.20;0.60;;;19.80;99.90;;;;;;4231486;28;20043;-81
2023/08/10 09:57:21;;;;;;;1.92;0.45;;;19.90;99.90;;;;;;4233021;28;20544;-81
2023/08/10 09:59:23;;;;;;;3.42;0.65;;;19.90;99.90;;;;;;4232746;28;20039;-81
2023/08/10 10:01:24;;;;;;;3.25;0.50;;;20.10;99.90;;;;;;4232770;28;20142;-80
2023/08/10 10:03:29;;;;;;;5.40;1.23;;;20.20;99.90;;;;;;4232301;28;20364;-80
2023/08/10 10:05:30;;;;;;;4.97;0.70;;;20.20;99.90;;;;;;4232780;28;20039;-81
2023/08/10 10:07:31;;;;;;;2.00;0.60;;;20.30;99.90;;;;;;4231712;28;20044;-81
2023/08/10 10:09:37;;;;;;;3.10;0.85;;;20.30;99.90;;;;;;4232406;28;20061;-81
2023/08/10 10:11:39;;;;;;;1.92;0.70;;;20.40;99.90;;;;;;4231631;28;20054;-81
2023/08/10 10:13:41;;;;;;;1.98;0.77;;;20.40;99.90;;;;;;4231172;28;20055;-80
2023/08/10 10:15:45;;;;;;;2.15;1.02;;;20.40;99.90;;;;;;4214170;28;20101;-80
2023/08/10 10:17:50;;;;;;;1.50;0.60;;;20.30;99.90;;;;;;4230730;28;20051;-81
2023/08/10 10:19:51;;;;;;;2.42;0.57;;;20.30;99.90;;;;;;4232220;28;20491;-80
2023/08/10 10:21:52;;;;;;;2.55;0.60;;;20.40;99.90;;;;;;4232770;28;20043;-80
2023/08/10 10:23:58;;;;;;;3.30;0.60;;;20.50;99.90;;;;;;4238123;28;20051;-81
2023/08/10 10:26:01;;;;;;;5.35;0.63;;;20.60;99.90;;;;;;4236402;28;20051;-81
2023/08/10 10:28:13;;;;;;;4.75;0.95;;;20.50;99.90;;;;;;4231682;28;20039;-81
2023/08/10 10:30:19;;;;;;;4.47;1.25;;;20.40;99.90;;;;;;4230654;28;20044;-81
2023/08/10 10:32:21;;;;;;;3.97;0.77;;;20.50;99.90;;;;;;4232371;28;20511;-81